sensor_id;sensor_type;location;lat;lon;timestamp;temperature;humidity
32334;DHT22;18810;53.040;8.850;2022-11-20T00:01:09;1.60;99.90
32334;DHT22;18810;53.040;8.850;2022-11-20T00:03:35;1.40;99.90
32334;DHT22;18810;53.040;8.850;2022-11-20T00:06:02;1.30;99.90
32334;DHT22;18810;53.040;8.850;2022-11-20T00:08:29;1.50;99.90
32334;DHT22;18810;53.040;8.850;2022-11-20T00:10:55;1.50;99.90
32334;DHT22;18810;53.040;8.850;2022-11-20T00:13:21;1.50;99.90
32334;DHT22;18810;53.040;8.850;2022-11-20T00:15:47;1.50;99.90
32334;DHT22;18810;53.040;8.850;2022-11-20T00:18:13;1.60;99.90
32334;DHT22;18810;53.040;8.850;2022-11-20T00:20:39;1.50;99.90
32334;DHT22;18810;53.040;8.850;2022-11-20T00:23:05;1.50;99.90
32334;DHT22;18810;53.040;8.850;2022-11-20T00:25:34;1.40;99.90
32334;DHT22;18810;53.040;8.850;2022-11-20T00:28:00;1.30;99.90
32334;DHT22;18810;53.040;8.850;2022-11-20T00:30:26;1.40;99.90
32334;DHT22;18810;53.040;8.850;2022-11-20T00:32:51;1.40;99.90
32334;DHT22;18810;53.040;8.850;2022-11-20T00:35:17;1.50;99.90
32334;DHT22;18810;53.040;8.850;2022-11-20T00:37:43;1.60;99.90
32334;DHT22;18810;53.040;8.850;2022-11-20T00:40:09;1.70;99.90
32334;DHT22;18810;53.040;8.850;2022-11-20T00:42:35;1.70;99.90
32334;DHT22;18810;53.040;8.850;2022-11-20T00:45:00;1.70;99.90
32334;DHT22;18810;53.040;8.850;2022-11-20T00:47:26;1.60;99.90
32334;DHT22;18810;53.040;8.850;2022-11-20T00:49:55;1.60;99.90
32334;DHT22;18810;53.040;8.850;2022-11-20T00:52:20;1.60;99.90
32334;DHT22;18810;53.040;8.850;2022-11-20T00:54:46;1.60;99.90
32334;DHT22;18810;53.040;8.850;2022-11-20T00:57:12;1.70;99.90
32334;DHT22;18810;53.040;8.850;2022-11-20T00:59:38;1.50;99.90
32334;DHT22;18810;53.040;8.850;2022-11-20T01:02:03;1.40;99.90
32334;DHT22;18810;53.040;8.850;2022-11-20T01:04:29;1.50;99.90
32334;DHT22;18810;53.040;8.850;2022-11-20T01:06:55;1.50;99.90
32334;DHT22;18810;53.040;8.850;2022-11-20T01:09:20;1.50;99.90
32334;DHT22;18810;53.040;8.850;2022-11-20T01:11:46;1.40;99.90
32334;DHT22;18810;53.040;8.850;2022-11-20T01:14:17;1.30;99.90
32334;DHT22;18810;53.040;8.850;2022-11-20T01:16:46;1.30;99.90
32334;DHT22;18810;53.040;8.850;2022-11-20T01:19:17;1.30;99.90
32334;DHT22;18810;53.040;8.850;2022-11-20T01:21:44;1.30;99.90
32334;DHT22;18810;53.040;8.850;2022-11-20T01:24:12;1.50;99.90
32334;DHT22;18810;53.040;8.850;2022-11-20T01:26:40;1.60;99.90
32334;DHT22;18810;53.040;8.850;2022-11-20T01:29:09;1.60;99.90
32334;DHT22;18810;53.040;8.850;2022-11-20T01:31:37;1.50;99.90
32334;DHT22;18810;53.040;8.850;2022-11-20T01:34:09;1.60;99.90
32334;DHT22;18810;53.040;8.850;2022-11-20T01:36:36;1.50;99.90
32334;DHT22;18810;53.040;8.850;2022-11-20T01:39:09;1.40;99.90
32334;DHT22;18810;53.040;8.850;2022-11-20T01:41:35;1.40;99.90
32334;DHT22;18810;53.040;8.850;2022-11-20T01:44:39;1.40;99.90
32334;DHT22;18810;53.040;8.850;2022-11-20T01:47:08;1.30;99.90
32334;DHT22;18810;53.040;8.850;2022-11-20T01:49:39;1.30;99.90
32334;DHT22;18810;53.040;8.850;2022-11-20T01:52:17;1.30;99.90
32334;DHT22;18810;53.040;8.850;2022-11-20T01:54:51;1.40;99.90
32334;DHT22;18810;53.040;8.850;2022-11-20T01:57:19;1.40;99.90
32334;DHT22;18810;53.040;8.850;2022-11-20T01:59:54;1.40;99.90
32334;DHT22;18810;53.040;8.850;2022-11-20T02:02:21;1.70;99.90
32334;DHT22;18810;53.040;8.850;2022-11-20T02:04:47;1.40;99.90
32334;DHT22;18810;53.040;8.850;2022-11-20T02:07:14;1.40;99.90
32334;DHT22;18810;53.040;8.850;2022-11-20T02:09:41;1.40;99.90
32334;DHT22;18810;53.040;8.850;2022-11-20T02:12:07;1.40;99.90
32334;DHT22;18810;53.040;8.850;2022-11-20T02:14:52;1.40;99.90
32334;DHT22;18810;53.040;8.850;2022-11-20T02:17:18;1.40;99.90
32334;DHT22;18810;53.040;8.850;2022-11-20T02:19:44;1.40;99.90
32334;DHT22;18810;53.040;8.850;2022-11-20T02:22:16;1.40;99.90
32334;DHT22;18810;53.040;8.850;2022-11-20T02:24:45;1.40;99.90
32334;DHT22;18810;53.040;8.850;2022-11-20T02:27:13;1.40;99.90
32334;DHT22;18810;53.040;8.850;2022-11-20T02:29:50;1.50;99.90
32334;DHT22;18810;53.040;8.850;2022-11-20T02:32:24;1.30;99.90
32334;DHT22;18810;53.040;8.850;2022-11-20T02:34:51;1.40;99.90
32334;DHT22;18810;53.040;8.850;2022-11-20T02:37:17;1.40;99.90
32334;DHT22;18810;53.040;8.850;2022-11-20T02:39:45;1.50;99.90
32334;DHT22;18810;53.040;8.850;2022-11-20T02:42:11;1.50;99.90
32334;DHT22;18810;53.040;8.850;2022-11-20T02:44:37;1.50;99.90
32334;DHT22;18810;53.040;8.850;2022-11-20T02:47:03;1.50;99.90
32334;DHT22;18810;53.040;8.850;2022-11-20T02:49:28;1.50;99.90
32334;DHT22;18810;53.040;8.850;2022-11-20T02:51:54;1.50;99.90
32334;DHT22;18810;53.040;8.850;2022-11-20T02:54:20;1.40;99.90
32334;DHT22;18810;53.040;8.850;2022-11-20T02:56:46;1.50;99.90
32334;DHT22;18810;53.040;8.850;2022-11-20T02:59:11;1.40;99.90
32334;DHT22;18810;53.040;8.850;2022-11-20T03:01:37;1.50;99.90
32334;DHT22;18810;53.040;8.850;2022-11-20T03:04:03;1.50;99.90
32334;DHT22;18810;53.040;8.850;2022-11-20T03:06:28;1.40;99.90
32334;DHT22;18810;53.040;8.850;2022-11-20T03:08:54;1.40;99.90
32334;DHT22;18810;53.040;8.850;2022-11-20T03:11:20;1.40;99.90
32334;DHT22;18810;53.040;8.850;2022-11-20T03:13:46;1.40;99.90
32334;DHT22;18810;53.040;8.850;2022-11-20T03:16:17;1.50;99.90
32334;DHT22;18810;53.040;8.850;2022-11-20T03:18:43;1.50;99.90
32334;DHT22;18810;53.040;8.850;2022-11-20T03:21:11;1.60;99.90
32334;DHT22;18810;53.040;8.850;2022-11-20T03:23:38;1.50;99.90
32334;DHT22;18810;53.040;8.850;2022-11-20T03:26:18;1.50;99.90
32334;DHT22;18810;53.040;8.850;2022-11-20T03:28:50;1.50;99.90
32334;DHT22;18810;53.040;8.850;2022-11-20T03:31:17;1.60;99.90
32334;DHT22;18810;53.040;8.850;2022-11-20T03:33:44;1.70;99.90
32334;DHT22;18810;53.040;8.850;2022-11-20T03:36:12;1.70;99.90
32334;DHT22;18810;53.040;8.850;2022-11-20T03:38:38;1.70;99.90
32334;DHT22;18810;53.040;8.850;2022-11-20T03:41:09;1.70;99.90
32334;DHT22;18810;53.040;8.850;2022-11-20T03:43:36;1.70;99.90
32334;DHT22;18810;53.040;8.850;2022-11-20T03:46:02;1.70;99.90
32334;DHT22;18810;53.040;8.850;2022-11-20T03:48:28;1.60;99.90
32334;DHT22;18810;53.040;8.850;2022-11-20T03:51:16;1.70;99.90
32334;DHT22;18810;53.040;8.850;2022-11-20T03:53:44;1.70;99.90
32334;DHT22;18810;53.040;8.850;2022-11-20T03:56:11;1.70;99.90
32334;DHT22;18810;53.040;8.850;2022-11-20T03:58:38;1.60;99.90
32334;DHT22;18810;53.040;8.850;2022-11-20T04:01:15;1.70;99.90
32334;DHT22;18810;53.040;8.850;2022-11-20T04:03:45;1.80;99.90
32334;DHT22;18810;53.040;8.850;2022-11-20T04:06:17;1.80;99.90
32334;DHT22;18810;53.040;8.850;2022-11-20T04:08:43;1.80;99.90
32334;DHT22;18810;53.040;8.850;2022-11-20T04:11:21;1.80;99.90
32334;DHT22;18810;53.040;8.850;2022-11-20T04:13:49;1.80;99.90
32334;DHT22;18810;53.040;8.850;2022-11-20T04:16:15;1.80;99.90
32334;DHT22;18810;53.040;8.850;2022-11-20T04:18:41;1.70;99.90
32334;DHT22;18810;53.040;8.850;2022-11-20T04:21:09;1.70;99.90
32334;DHT22;18810;53.040;8.850;2022-11-20T04:23:35;1.70;99.90
32334;DHT22;18810;53.040;8.850;2022-11-20T04:26:09;1.60;99.90
32334;DHT22;18810;53.040;8.850;2022-11-20T04:28:36;1.50;99.90
32334;DHT22;18810;53.040;8.850;2022-11-20T04:31:07;1.60;99.90
32334;DHT22;18810;53.040;8.850;2022-11-20T04:33:33;1.70;99.90
32334;DHT22;18810;53.040;8.850;2022-11-20T04:36:04;1.70;99.90
32334;DHT22;18810;53.040;8.850;2022-11-20T04:38:31;1.70;99.90
32334;DHT22;18810;53.040;8.850;2022-11-20T04:40:58;1.70;99.90
32334;DHT22;18810;53.040;8.850;2022-11-20T04:43:24;1.60;99.90
32334;DHT22;18810;53.040;8.850;2022-11-20T04:45:54;1.60;99.90
32334;DHT22;18810;53.040;8.850;2022-11-20T04:48:20;1.70;99.90
32334;DHT22;18810;53.040;8.850;2022-11-20T04:50:46;1.70;99.90
32334;DHT22;18810;53.040;8.850;2022-11-20T04:53:12;1.70;99.90
32334;DHT22;18810;53.040;8.850;2022-11-20T04:55:38;1.60;99.90
32334;DHT22;18810;53.040;8.850;2022-11-20T04:58:03;1.60;99.90
32334;DHT22;18810;53.040;8.850;2022-11-20T05:00:29;1.60;99.90
32334;DHT22;18810;53.040;8.850;2022-11-20T05:02:55;1.60;99.90
32334;DHT22;18810;53.040;8.850;2022-11-20T05:05:20;1.60;99.90
32334;DHT22;18810;53.040;8.850;2022-11-20T05:07:46;1.60;99.90
32334;DHT22;18810;53.040;8.850;2022-11-20T05:10:12;1.50;99.90
32334;DHT22;18810;53.040;8.850;2022-11-20T05:12:38;1.50;99.90
32334;DHT22;18810;53.040;8.850;2022-11-20T05:15:04;1.40;99.90
32334;DHT22;18810;53.040;8.850;2022-11-20T05:17:29;1.50;99.90
32334;DHT22;18810;53.040;8.850;2022-11-20T05:19:55;1.60;99.90
32334;DHT22;18810;53.040;8.850;2022-11-20T05:22:21;1.80;99.90
32334;DHT22;18810;53.040;8.850;2022-11-20T05:24:47;1.70;99.90
32334;DHT22;18810;53.040;8.850;2022-11-20T05:27:12;1.80;99.90
32334;DHT22;18810;53.040;8.850;2022-11-20T05:29:38;1.80;99.90
32334;DHT22;18810;53.040;8.850;2022-11-20T05:32:04;1.80;99.90
32334;DHT22;18810;53.040;8.850;2022-11-20T05:34:31;1.80;99.90
32334;DHT22;18810;53.040;8.850;2022-11-20T05:36:57;1.80;99.90
32334;DHT22;18810;53.040;8.850;2022-11-20T05:39:23;1.80;99.90
32334;DHT22;18810;53.040;8.850;2022-11-20T05:41:48;1.90;99.90
32334;DHT22;18810;53.040;8.850;2022-11-20T05:44:34;1.80;99.90
32334;DHT22;18810;53.040;8.850;2022-11-20T05:47:00;1.80;99.90
32334;DHT22;18810;53.040;8.850;2022-11-20T05:49:25;1.80;99.90
32334;DHT22;18810;53.040;8.850;2022-11-20T05:51:51;1.70;99.90
32334;DHT22;18810;53.040;8.850;2022-11-20T05:54:17;1.70;99.90
32334;DHT22;18810;53.040;8.850;2022-11-20T05:56:42;1.80;99.90
32334;DHT22;18810;53.040;8.850;2022-11-20T05:59:08;1.80;99.90
32334;DHT22;18810;53.040;8.850;2022-11-20T06:01:34;1.80;99.90
32334;DHT22;18810;53.040;8.850;2022-11-20T06:04:01;1.80;99.90
32334;DHT22;18810;53.040;8.850;2022-11-20T06:06:30;1.70;99.90
32334;DHT22;18810;53.040;8.850;2022-11-20T06:08:55;1.70;99.90
32334;DHT22;18810;53.040;8.850;2022-11-20T06:11:21;1.70;99.90
32334;DHT22;18810;53.040;8.850;2022-11-20T06:13:48;1.70;99.90
32334;DHT22;18810;53.040;8.850;2022-11-20T06:16:16;1.80;99.90
32334;DHT22;18810;53.040;8.850;2022-11-20T06:18:42;1.80;99.90
32334;DHT22;18810;53.040;8.850;2022-11-20T06:21:13;1.90;99.90
32334;DHT22;18810;53.040;8.850;2022-11-20T06:23:39;1.90;99.90
32334;DHT22;18810;53.040;8.850;2022-11-20T06:26:11;2.00;99.90
32334;DHT22;18810;53.040;8.850;2022-11-20T06:28:37;2.00;99.90
32334;DHT22;18810;53.040;8.850;2022-11-20T06:31:03;2.00;99.90
32334;DHT22;18810;53.040;8.850;2022-11-20T06:33:29;1.90;99.90
32334;DHT22;18810;53.040;8.850;2022-11-20T06:35:59;2.00;99.90
32334;DHT22;18810;53.040;8.850;2022-11-20T06:38:26;2.00;99.90
32334;DHT22;18810;53.040;8.850;2022-11-20T06:40:53;2.00;99.90
32334;DHT22;18810;53.040;8.850;2022-11-20T06:43:18;1.80;99.90
32334;DHT22;18810;53.040;8.850;2022-11-20T06:45:44;1.80;99.90
32334;DHT22;18810;53.040;8.850;2022-11-20T06:48:10;1.90;99.90
32334;DHT22;18810;53.040;8.850;2022-11-20T06:50:36;1.90;99.90
32334;DHT22;18810;53.040;8.850;2022-11-20T06:53:03;1.90;99.90
32334;DHT22;18810;53.040;8.850;2022-11-20T06:55:30;2.00;99.90
32334;DHT22;18810;53.040;8.850;2022-11-20T06:57:57;1.90;99.90
32334;DHT22;18810;53.040;8.850;2022-11-20T07:00:23;1.90;99.90
32334;DHT22;18810;53.040;8.850;2022-11-20T07:02:48;2.00;99.90
32334;DHT22;18810;53.040;8.850;2022-11-20T07:05:15;2.00;99.90
32334;DHT22;18810;53.040;8.850;2022-11-20T07:07:41;2.00;99.90
32334;DHT22;18810;53.040;8.850;2022-11-20T07:10:08;1.90;99.90
32334;DHT22;18810;53.040;8.850;2022-11-20T07:12:33;2.00;99.90
32334;DHT22;18810;53.040;8.850;2022-11-20T07:14:59;1.80;99.90
32334;DHT22;18810;53.040;8.850;2022-11-20T07:17:25;1.90;99.90
32334;DHT22;18810;53.040;8.850;2022-11-20T07:19:50;1.90;99.90
32334;DHT22;18810;53.040;8.850;2022-11-20T07:22:16;1.80;99.90
32334;DHT22;18810;53.040;8.850;2022-11-20T07:24:42;1.70;99.90
32334;DHT22;18810;53.040;8.850;2022-11-20T07:27:08;1.60;99.90
32334;DHT22;18810;53.040;8.850;2022-11-20T07:29:34;1.60;99.90
32334;DHT22;18810;53.040;8.850;2022-11-20T07:31:59;1.60;99.90
32334;DHT22;18810;53.040;8.850;2022-11-20T07:34:25;1.60;99.90
32334;DHT22;18810;53.040;8.850;2022-11-20T07:36:51;1.50;99.90
32334;DHT22;18810;53.040;8.850;2022-11-20T07:39:17;1.60;99.90
32334;DHT22;18810;53.040;8.850;2022-11-20T07:41:42;1.50;99.90
32334;DHT22;18810;53.040;8.850;2022-11-20T07:44:08;1.50;99.90
32334;DHT22;18810;53.040;8.850;2022-11-20T07:46:34;1.50;99.90
32334;DHT22;18810;53.040;8.850;2022-11-20T07:49:00;1.40;99.90
32334;DHT22;18810;53.040;8.850;2022-11-20T07:51:25;1.40;99.90
32334;DHT22;18810;53.040;8.850;2022-11-20T07:53:54;1.50;99.90
32334;DHT22;18810;53.040;8.850;2022-11-20T07:56:21;1.50;99.90
32334;DHT22;18810;53.040;8.850;2022-11-20T07:58:47;1.60;99.90
32334;DHT22;18810;53.040;8.850;2022-11-20T08:01:15;1.60;99.90
32334;DHT22;18810;53.040;8.850;2022-11-20T08:03:41;1.70;99.90
32334;DHT22;18810;53.040;8.850;2022-11-20T08:06:07;1.70;99.90
32334;DHT22;18810;53.040;8.850;2022-11-20T08:08:32;1.80;99.90
32334;DHT22;18810;53.040;8.850;2022-11-20T08:10:58;1.80;99.90
32334;DHT22;18810;53.040;8.850;2022-11-20T08:13:42;1.70;99.90
32334;DHT22;18810;53.040;8.850;2022-11-20T08:16:27;1.80;99.90
32334;DHT22;18810;53.040;8.850;2022-11-20T08:18:53;1.80;99.90
32334;DHT22;18810;53.040;8.850;2022-11-20T08:21:19;1.90;99.90
32334;DHT22;18810;53.040;8.850;2022-11-20T08:23:45;1.90;99.90
32334;DHT22;18810;53.040;8.850;2022-11-20T08:26:10;1.90;99.90
32334;DHT22;18810;53.040;8.850;2022-11-20T08:28:36;2.00;99.90
32334;DHT22;18810;53.040;8.850;2022-11-20T08:31:02;2.00;99.90
32334;DHT22;18810;53.040;8.850;2022-11-20T08:33:29;1.90;99.90
32334;DHT22;18810;53.040;8.850;2022-11-20T08:35:59;2.00;99.90
32334;DHT22;18810;53.040;8.850;2022-11-20T08:38:25;2.10;99.90
32334;DHT22;18810;53.040;8.850;2022-11-20T08:40:51;2.20;99.90
32334;DHT22;18810;53.040;8.850;2022-11-20T08:43:35;2.10;99.90
32334;DHT22;18810;53.040;8.850;2022-11-20T08:46:00;2.30;99.90
32334;DHT22;18810;53.040;8.850;2022-11-20T08:48:26;2.40;99.90
32334;DHT22;18810;53.040;8.850;2022-11-20T08:50:52;2.50;99.90
32334;DHT22;18810;53.040;8.850;2022-11-20T08:53:18;2.70;99.90
32334;DHT22;18810;53.040;8.850;2022-11-20T08:55:43;2.90;99.90
32334;DHT22;18810;53.040;8.850;2022-11-20T08:58:09;2.90;99.90
32334;DHT22;18810;53.040;8.850;2022-11-20T09:00:35;2.90;99.90
32334;DHT22;18810;53.040;8.850;2022-11-20T09:03:01;3.10;99.90
32334;DHT22;18810;53.040;8.850;2022-11-20T09:05:27;3.10;99.90
32334;DHT22;18810;53.040;8.850;2022-11-20T09:07:56;3.00;99.90
32334;DHT22;18810;53.040;8.850;2022-11-20T09:10:22;2.90;99.90
32334;DHT22;18810;53.040;8.850;2022-11-20T09:12:52;3.00;99.90
32334;DHT22;18810;53.040;8.850;2022-11-20T09:15:18;3.20;99.90
32334;DHT22;18810;53.040;8.850;2022-11-20T09:17:55;3.20;99.90
32334;DHT22;18810;53.040;8.850;2022-11-20T09:20:21;3.20;99.90
32334;DHT22;18810;53.040;8.850;2022-11-20T09:22:47;3.20;99.90
32334;DHT22;18810;53.040;8.850;2022-11-20T09:25:12;3.30;99.90
32334;DHT22;18810;53.040;8.850;2022-11-20T09:27:38;3.30;99.90
32334;DHT22;18810;53.040;8.850;2022-11-20T09:30:04;3.30;99.90
32334;DHT22;18810;53.040;8.850;2022-11-20T09:32:30;3.30;99.90
32334;DHT22;18810;53.040;8.850;2022-11-20T09:34:56;3.40;99.90
32334;DHT22;18810;53.040;8.850;2022-11-20T09:37:22;3.30;99.90
32334;DHT22;18810;53.040;8.850;2022-11-20T09:39:48;3.40;99.90
32334;DHT22;18810;53.040;8.850;2022-11-20T09:42:43;3.50;99.90
32334;DHT22;18810;53.040;8.850;2022-11-20T09:50:47;3.30;99.90
32334;DHT22;18810;53.040;8.850;2022-11-20T09:56:12;3.00;99.90
32334;DHT22;18810;53.040;8.850;2022-11-20T09:58:40;3.00;99.90
32334;DHT22;18810;53.040;8.850;2022-11-20T10:01:14;2.90;99.90
32334;DHT22;18810;53.040;8.850;2022-11-20T10:06:33;2.80;99.90
32334;DHT22;18810;53.040;8.850;2022-11-20T10:16:57;2.80;99.90
32334;DHT22;18810;53.040;8.850;2022-11-20T10:19:47;2.80;99.90
32334;DHT22;18810;53.040;8.850;2022-11-20T10:22:24;2.80;99.90
32334;DHT22;18810;53.040;8.850;2022-11-20T10:25:16;2.70;99.90
32334;DHT22;18810;53.040;8.850;2022-11-20T10:30:17;2.60;99.90
32334;DHT22;18810;53.040;8.850;2022-11-20T10:32:50;2.60;99.90
32334;DHT22;18810;53.040;8.850;2022-11-20T10:38:02;2.30;99.90
32334;DHT22;18810;53.040;8.850;2022-11-20T10:40:56;2.20;99.90
32334;DHT22;18810;53.040;8.850;2022-11-20T10:43:43;2.20;99.90
32334;DHT22;18810;53.040;8.850;2022-11-20T10:46:20;2.30;99.90
32334;DHT22;18810;53.040;8.850;2022-11-20T10:48:49;2.30;99.90
32334;DHT22;18810;53.040;8.850;2022-11-20T10:56:41;2.40;99.90
32334;DHT22;18810;53.040;8.850;2022-11-20T11:01:42;2.40;99.90
32334;DHT22;18810;53.040;8.850;2022-11-20T11:04:28;2.40;99.90
32334;DHT22;18810;53.040;8.850;2022-11-20T11:10:00;2.40;99.90
32334;DHT22;18810;53.040;8.850;2022-11-20T11:12:28;2.30;99.90
32334;DHT22;18810;53.040;8.850;2022-11-20T11:14:57;2.30;99.90
32334;DHT22;18810;53.040;8.850;2022-11-20T11:22:48;2.20;99.90
32334;DHT22;18810;53.040;8.850;2022-11-20T11:27:51;2.10;99.90
32334;DHT22;18810;53.040;8.850;2022-11-20T11:30:19;2.10;99.90
32334;DHT22;18810;53.040;8.850;2022-11-20T11:32:45;2.00;99.90
32334;DHT22;18810;53.040;8.850;2022-11-20T11:35:23;2.00;99.90
32334;DHT22;18810;53.040;8.850;2022-11-20T11:37:50;2.00;99.90
32334;DHT22;18810;53.040;8.850;2022-11-20T11:40:18;2.00;99.90
32334;DHT22;18810;53.040;8.850;2022-11-20T11:42:56;2.00;99.90
32334;DHT22;18810;53.040;8.850;2022-11-20T11:45:22;2.10;99.90
32334;DHT22;18810;53.040;8.850;2022-11-20T11:47:50;2.20;99.90
32334;DHT22;18810;53.040;8.850;2022-11-20T11:50:21;2.40;99.90
32334;DHT22;18810;53.040;8.850;2022-11-20T11:55:47;3.10;99.90
32334;DHT22;18810;53.040;8.850;2022-11-20T12:04:20;3.20;99.90
32334;DHT22;18810;53.040;8.850;2022-11-20T12:06:51;4.50;99.90
32334;DHT22;18810;53.040;8.850;2022-11-20T12:09:22;4.60;99.90
32334;DHT22;18810;53.040;8.850;2022-11-20T12:12:02;4.80;99.90
32334;DHT22;18810;53.040;8.850;2022-11-20T12:17:04;3.90;99.90
32334;DHT22;18810;53.040;8.850;2022-11-20T12:19:32;3.80;99.90
32334;DHT22;18810;53.040;8.850;2022-11-20T12:30:13;3.40;99.90
32334;DHT22;18810;53.040;8.850;2022-11-20T12:58:50;2.20;99.90
32334;DHT22;18810;53.040;8.850;2022-11-20T13:06:46;2.70;99.90
32334;DHT22;18810;53.040;8.850;2022-11-20T13:09:16;2.90;99.90
32334;DHT22;18810;53.040;8.850;2022-11-20T13:19:40;2.60;99.90
32334;DHT22;18810;53.040;8.850;2022-11-20T13:22:08;2.70;99.90
32334;DHT22;18810;53.040;8.850;2022-11-20T13:24:34;2.70;99.90
32334;DHT22;18810;53.040;8.850;2022-11-20T13:27:05;2.80;99.90
32334;DHT22;18810;53.040;8.850;2022-11-20T13:29:32;2.90;99.90
32334;DHT22;18810;53.040;8.850;2022-11-20T13:32:16;2.90;99.90
32334;DHT22;18810;53.040;8.850;2022-11-20T13:35:03;2.90;99.90
32334;DHT22;18810;53.040;8.850;2022-11-20T13:42:40;2.60;99.90
32334;DHT22;18810;53.040;8.850;2022-11-20T13:45:11;2.40;99.90
32334;DHT22;18810;53.040;8.850;2022-11-20T13:47:37;2.50;99.90
32334;DHT22;18810;53.040;8.850;2022-11-20T13:50:04;2.40;99.90
32334;DHT22;18810;53.040;8.850;2022-11-20T13:55:42;2.40;99.90
32334;DHT22;18810;53.040;8.850;2022-11-20T14:01:00;2.40;99.90
32334;DHT22;18810;53.040;8.850;2022-11-20T14:03:29;2.30;99.90
32334;DHT22;18810;53.040;8.850;2022-11-20T14:06:05;2.40;99.90
32334;DHT22;18810;53.040;8.850;2022-11-20T14:11:18;2.70;99.90
32334;DHT22;18810;53.040;8.850;2022-11-20T14:14:14;2.90;99.90
32334;DHT22;18810;53.040;8.850;2022-11-20T14:16:41;2.90;99.90
32334;DHT22;18810;53.040;8.850;2022-11-20T14:21:52;2.60;99.90
32334;DHT22;18810;53.040;8.850;2022-11-20T14:24:23;2.50;99.90
32334;DHT22;18810;53.040;8.850;2022-11-20T14:26:50;2.30;99.90
32334;DHT22;18810;53.040;8.850;2022-11-20T14:29:22;2.10;99.90
32334;DHT22;18810;53.040;8.850;2022-11-20T14:31:52;2.10;99.90
32334;DHT22;18810;53.040;8.850;2022-11-20T14:34:21;2.20;99.90
32334;DHT22;18810;53.040;8.850;2022-11-20T14:36:48;2.20;99.90
32334;DHT22;18810;53.040;8.850;2022-11-20T14:39:21;2.10;99.90
32334;DHT22;18810;53.040;8.850;2022-11-20T14:41:51;2.00;99.90
32334;DHT22;18810;53.040;8.850;2022-11-20T14:44:18;1.80;99.90
32334;DHT22;18810;53.040;8.850;2022-11-20T14:46:45;1.80;99.90
32334;DHT22;18810;53.040;8.850;2022-11-20T14:49:11;1.80;99.90
32334;DHT22;18810;53.040;8.850;2022-11-20T14:51:39;1.70;99.90
32334;DHT22;18810;53.040;8.850;2022-11-20T14:54:19;1.80;99.90
32334;DHT22;18810;53.040;8.850;2022-11-20T14:56:57;1.80;99.90
32334;DHT22;18810;53.040;8.850;2022-11-20T14:59:28;1.60;99.90
32334;DHT22;18810;53.040;8.850;2022-11-20T15:02:04;1.40;99.90
32334;DHT22;18810;53.040;8.850;2022-11-20T15:04:30;1.30;99.90
32334;DHT22;18810;53.040;8.850;2022-11-20T15:06:57;1.30;99.90
32334;DHT22;18810;53.040;8.850;2022-11-20T15:09:24;1.30;99.90
32334;DHT22;18810;53.040;8.850;2022-11-20T15:11:59;1.30;99.90
32334;DHT22;18810;53.040;8.850;2022-11-20T15:14:27;1.20;99.90
32334;DHT22;18810;53.040;8.850;2022-11-20T15:16:53;1.30;99.90
32334;DHT22;18810;53.040;8.850;2022-11-20T15:19:22;1.40;99.90
32334;DHT22;18810;53.040;8.850;2022-11-20T15:21:48;1.50;99.90
32334;DHT22;18810;53.040;8.850;2022-11-20T15:24:14;1.50;99.90
32334;DHT22;18810;53.040;8.850;2022-11-20T15:26:40;1.50;99.90
32334;DHT22;18810;53.040;8.850;2022-11-20T15:29:11;1.40;99.90
32334;DHT22;18810;53.040;8.850;2022-11-20T15:31:37;1.50;99.90
32334;DHT22;18810;53.040;8.850;2022-11-20T15:34:12;1.40;99.90
32334;DHT22;18810;53.040;8.850;2022-11-20T15:36:39;1.40;99.90
32334;DHT22;18810;53.040;8.850;2022-11-20T15:39:05;1.20;99.90
32334;DHT22;18810;53.040;8.850;2022-11-20T15:41:34;1.20;99.90
32334;DHT22;18810;53.040;8.850;2022-11-20T15:43:59;1.20;99.90
32334;DHT22;18810;53.040;8.850;2022-11-20T15:46:27;1.10;99.90
32334;DHT22;18810;53.040;8.850;2022-11-20T15:48:55;1.00;99.90
32334;DHT22;18810;53.040;8.850;2022-11-20T15:51:27;1.10;99.90
32334;DHT22;18810;53.040;8.850;2022-11-20T15:53:55;1.00;99.90
32334;DHT22;18810;53.040;8.850;2022-11-20T15:56:21;1.00;99.90
32334;DHT22;18810;53.040;8.850;2022-11-20T15:58:47;1.00;99.90
32334;DHT22;18810;53.040;8.850;2022-11-20T16:01:15;1.00;99.90
32334;DHT22;18810;53.040;8.850;2022-11-20T16:03:41;1.00;99.90
32334;DHT22;18810;53.040;8.850;2022-11-20T16:06:07;1.00;99.90
32334;DHT22;18810;53.040;8.850;2022-11-20T16:08:33;0.90;99.90
32334;DHT22;18810;53.040;8.850;2022-11-20T16:10:59;0.90;99.90
32334;DHT22;18810;53.040;8.850;2022-11-20T16:13:25;0.80;99.90
32334;DHT22;18810;53.040;8.850;2022-11-20T16:16:23;0.80;99.90
32334;DHT22;18810;53.040;8.850;2022-11-20T16:18:51;0.70;99.90
32334;DHT22;18810;53.040;8.850;2022-11-20T16:21:17;0.60;99.90
32334;DHT22;18810;53.040;8.850;2022-11-20T16:23:42;0.60;99.90
32334;DHT22;18810;53.040;8.850;2022-11-20T16:26:16;0.70;99.90
32334;DHT22;18810;53.040;8.850;2022-11-20T16:28:46;0.60;99.90
32334;DHT22;18810;53.040;8.850;2022-11-20T16:31:16;0.60;99.90
32334;DHT22;18810;53.040;8.850;2022-11-20T16:33:43;0.60;99.90
32334;DHT22;18810;53.040;8.850;2022-11-20T16:36:13;0.60;99.90
32334;DHT22;18810;53.040;8.850;2022-11-20T16:38:41;0.60;99.90
32334;DHT22;18810;53.040;8.850;2022-11-20T16:41:07;0.60;99.90
32334;DHT22;18810;53.040;8.850;2022-11-20T16:43:59;0.50;99.90
32334;DHT22;18810;53.040;8.850;2022-11-20T16:46:28;0.50;99.90
32334;DHT22;18810;53.040;8.850;2022-11-20T16:48:55;0.50;99.90
32334;DHT22;18810;53.040;8.850;2022-11-20T16:51:21;0.40;99.90
32334;DHT22;18810;53.040;8.850;2022-11-20T16:53:48;0.40;99.90
32334;DHT22;18810;53.040;8.850;2022-11-20T16:56:17;0.40;99.90
32334;DHT22;18810;53.040;8.850;2022-11-20T16:58:44;0.40;99.90
32334;DHT22;18810;53.040;8.850;2022-11-20T17:01:13;0.40;99.90
32334;DHT22;18810;53.040;8.850;2022-11-20T17:03:41;0.40;99.90
32334;DHT22;18810;53.040;8.850;2022-11-20T17:06:18;0.40;99.90
32334;DHT22;18810;53.040;8.850;2022-11-20T17:08:45;0.40;99.90
32334;DHT22;18810;53.040;8.850;2022-11-20T17:11:17;0.30;99.90
32334;DHT22;18810;53.040;8.850;2022-11-20T17:13:43;0.30;99.90
32334;DHT22;18810;53.040;8.850;2022-11-20T17:16:15;0.20;99.90
32334;DHT22;18810;53.040;8.850;2022-11-20T17:18:41;0.30;99.90
32334;DHT22;18810;53.040;8.850;2022-11-20T17:21:06;0.20;99.90
32334;DHT22;18810;53.040;8.850;2022-11-20T17:23:38;0.20;99.90
32334;DHT22;18810;53.040;8.850;2022-11-20T17:26:09;0.20;99.90
32334;DHT22;18810;53.040;8.850;2022-11-20T17:28:36;0.20;99.90
32334;DHT22;18810;53.040;8.850;2022-11-20T17:31:07;0.20;99.90
32334;DHT22;18810;53.040;8.850;2022-11-20T17:33:34;0.20;99.90
32334;DHT22;18810;53.040;8.850;2022-11-20T17:36:00;0.10;99.90
32334;DHT22;18810;53.040;8.850;2022-11-20T17:38:27;0.10;99.90
32334;DHT22;18810;53.040;8.850;2022-11-20T17:40:52;0.10;99.90
32334;DHT22;18810;53.040;8.850;2022-11-20T17:43:18;0.10;99.90
32334;DHT22;18810;53.040;8.850;2022-11-20T17:45:44;0.10;99.90
32334;DHT22;18810;53.040;8.850;2022-11-20T17:48:11;0.00;99.90
32334;DHT22;18810;53.040;8.850;2022-11-20T17:50:37;0.10;99.90
32334;DHT22;18810;53.040;8.850;2022-11-20T17:53:03;0.00;99.90